LFBP/PUF METAR and TAF weather

Enter ICAO airport designator
Station Type Date Time Source
LFBP METAR 2021/06/24 05:00 UTC NOAA

LFBP 240500Z AUTO 24005KT 9999 OVC009 15/14 Q1022 TEMPO 4000 SHRA BKN007 BKN020TCU


Station Type Date Time Source
LFBP Decoded METAR 2021/06/24 05:00 UTC NOAA

Pau, France (LFBP) 43-23N 000-25W 185M
Jun 24, 2021 - 01:00 AM EDT / 2021.06.24 0500 UTC
Wind: from the WSW (240 degrees) at 6 MPH (5 KT):0
Visibility: greater than 7 mile(s):0
Sky conditions: overcast
Weather: Towering cumulus clouds observed
Temperature: 59 F (15 C)
Dew Point: 57 F (14 C)
Relative Humidity: 93%
Pressure (altimeter): 30.18 in. Hg (1022 hPa)
ob: LFBP 240500Z AUTO 24005KT 9999 OVC009 15/14 Q1022 TEMPO 4000 SHRA BKN007 BKN020TCU
cycle: 5

Station Type Date Time Source
LFBP TAF 2021/06/23 18:21 UTC NOAA

TAF LFBP 231700Z 2318/2418 26010KT 9999 BKN020
TEMPO 2318/2321 3000 SHRA BKN007 SCT020CB BKN025TCU
TEMPO 2321/2406 4000 SHRA BKN007 BKN020TCU
TEMPO 2406/2414 4000 SHRA BKN010 BKN020TCU PROB30 2414/2418 -SHRA BKN020TCU

Example: see airport list